createdAt,value
2023-10-10T00:00:56.965Z,21.20
2023-10-10T00:03:28.800Z,21.30
2023-10-10T00:06:00.093Z,21.60
2023-10-10T00:08:34.932Z,21.30
2023-10-10T00:11:10.885Z,21.20
2023-10-10T00:13:44.114Z,21.00
2023-10-10T00:16:21.496Z,20.90
2023-10-10T00:18:57.142Z,20.80
2023-10-10T00:21:29.963Z,20.80
2023-10-10T00:24:00.655Z,20.90
2023-10-10T00:26:31.105Z,21.00
2023-10-10T00:29:01.649Z,20.90
2023-10-10T00:31:34.927Z,20.90
2023-10-10T00:34:08.597Z,20.90
2023-10-10T00:36:38.576Z,21.00
2023-10-10T00:39:23.524Z,20.70
2023-10-10T00:41:56.371Z,20.60
2023-10-10T00:44:27.045Z,20.70
2023-10-10T00:46:59.087Z,20.60
2023-10-10T00:49:32.747Z,20.70
2023-10-10T00:52:08.109Z,20.70
2023-10-10T00:54:44.764Z,20.80
2023-10-10T00:57:17.538Z,20.70
2023-10-10T00:59:47.347Z,20.40
2023-10-10T01:02:18.651Z,20.50
2023-10-10T01:04:58.769Z,20.40
2023-10-10T01:07:28.529Z,20.00
2023-10-10T01:10:11.680Z,20.10
2023-10-10T01:12:42.202Z,20.00
2023-10-10T01:15:16.020Z,19.80
2023-10-10T01:17:47.151Z,20.00
2023-10-10T01:20:26.474Z,19.90
2023-10-10T01:22:58.062Z,19.90
2023-10-10T01:25:47.491Z,20.10
2023-10-10T01:28:28.789Z,20.10
2023-10-10T01:31:05.234Z,20.40
2023-10-10T01:33:49.087Z,20.40
2023-10-10T01:36:22.319Z,20.40
2023-10-10T01:39:26.025Z,20.40
2023-10-10T01:41:55.127Z,20.50
2023-10-10T01:44:26.147Z,20.70
2023-10-10T01:46:55.718Z,20.40
2023-10-10T01:49:30.366Z,20.40
2023-10-10T01:52:02.238Z,20.10
2023-10-10T01:54:43.359Z,19.80
2023-10-10T01:57:23.133Z,19.80
2023-10-10T01:59:59.253Z,19.90
2023-10-10T02:02:31.994Z,20.00
2023-10-10T02:05:01.825Z,19.80
2023-10-10T02:07:34.384Z,20.10
2023-10-10T02:10:15.350Z,20.20
2023-10-10T02:12:46.665Z,20.10
2023-10-10T02:15:20.627Z,19.90
2023-10-10T02:17:56.329Z,20.00
2023-10-10T02:23:45.796Z,20.20
2023-10-10T02:26:25.469Z,20.20
2023-10-10T02:29:17.188Z,20.20
2023-10-10T02:31:52.933Z,19.90
2023-10-10T02:34:23.059Z,20.10
2023-10-10T02:37:13.960Z,20.10
2023-10-10T02:39:50.529Z,20.10
2023-10-10T02:42:21.158Z,20.20
2023-10-10T02:44:53.894Z,20.20
2023-10-10T02:47:32.691Z,20.20
2023-10-10T02:50:14.089Z,20.10
2023-10-10T02:52:47.079Z,20.20
2023-10-10T02:55:24.307Z,20.30
2023-10-10T02:57:55.546Z,19.90
2023-10-10T03:00:30.817Z,19.80
2023-10-10T03:03:01.381Z,19.50
2023-10-10T03:05:45.602Z,19.70
2023-10-10T03:08:17.907Z,19.50
2023-10-10T03:10:56.382Z,19.60
2023-10-10T03:13:37.458Z,19.30
2023-10-10T03:16:42.982Z,19.70
2023-10-10T03:19:27.666Z,20.00
2023-10-10T03:22:12.713Z,19.90
2023-10-10T03:25:06.364Z,19.40
2023-10-10T03:27:51.893Z,19.50
2023-10-10T03:30:35.343Z,19.60
2023-10-10T03:33:10.921Z,19.40
2023-10-10T03:36:06.975Z,19.40
2023-10-10T03:38:58.607Z,19.70
2023-10-10T03:41:49.801Z,19.50
2023-10-10T03:44:37.569Z,19.20
2023-10-10T03:47:24.633Z,19.10
2023-10-10T03:50:12.956Z,19.30
2023-10-10T03:53:01.409Z,19.10
2023-10-10T03:55:47.866Z,19.10
2023-10-10T03:58:34.113Z,19.20
2023-10-10T04:01:21.950Z,19.10
2023-10-10T04:04:08.243Z,19.30
2023-10-10T04:06:54.399Z,19.10
2023-10-10T04:09:41.193Z,19.50
2023-10-10T04:12:27.465Z,19.60
2023-10-10T04:15:14.350Z,19.30
2023-10-10T04:18:02.257Z,19.50
2023-10-10T04:20:48.533Z,19.20
2023-10-10T04:23:35.094Z,19.30
2023-10-10T04:26:22.471Z,19.20
2023-10-10T04:29:08.868Z,19.40
2023-10-10T04:32:09.760Z,19.50
2023-10-10T04:34:57.651Z,19.50
2023-10-10T04:37:44.259Z,19.60
2023-10-10T04:40:30.838Z,19.50
2023-10-10T04:43:17.244Z,19.60
2023-10-10T04:46:08.859Z,20.00
2023-10-10T04:48:55.629Z,19.60
2023-10-10T04:51:43.554Z,19.50
2023-10-10T04:54:29.806Z,19.30
2023-10-10T04:57:16.254Z,19.00
2023-10-10T05:00:02.644Z,19.10
2023-10-10T05:02:51.352Z,19.30
2023-10-10T05:05:39.313Z,19.00
2023-10-10T05:08:27.336Z,19.10
2023-10-10T05:11:13.831Z,19.10
2023-10-10T05:14:00.168Z,19.20
2023-10-10T05:16:46.776Z,19.50
2023-10-10T05:19:33.449Z,19.60
2023-10-10T05:22:25.202Z,19.40
2023-10-10T05:24:57.707Z,19.10
2023-10-10T05:27:34.316Z,19.50
2023-10-10T05:30:03.701Z,19.20
2023-10-10T05:32:33.758Z,19.60
2023-10-10T05:35:12.819Z,19.40
2023-10-10T05:37:42.300Z,19.60
2023-10-10T05:40:15.501Z,19.80
2023-10-10T05:42:44.936Z,19.60
2023-10-10T05:45:15.346Z,19.90
2023-10-10T05:47:45.630Z,19.80
2023-10-10T05:50:14.987Z,20.00
2023-10-10T05:52:45.332Z,19.80
2023-10-10T05:55:16.486Z,19.90
2023-10-10T05:57:47.353Z,19.90
2023-10-10T06:00:16.829Z,19.90
2023-10-10T06:02:47.989Z,20.10
2023-10-10T06:05:19.367Z,20.00
2023-10-10T06:07:50.992Z,20.00
2023-10-10T06:10:21.981Z,20.00
2023-10-10T06:12:51.645Z,19.80
2023-10-10T06:15:21.101Z,19.90
2023-10-10T06:17:51.302Z,20.20
2023-10-10T06:20:23.150Z,19.90
2023-10-10T06:22:56.435Z,19.80
2023-10-10T06:25:27.066Z,20.00
2023-10-10T06:27:58.559Z,20.00
2023-10-10T06:30:27.674Z,19.90
2023-10-10T06:33:10.442Z,20.00
2023-10-10T06:35:39.866Z,20.00
2023-10-10T06:38:11.686Z,20.20
2023-10-10T06:40:54.402Z,19.90
2023-10-10T06:43:25.456Z,20.20
2023-10-10T06:45:57.373Z,20.20
2023-10-10T06:48:34.099Z,20.20
2023-10-10T06:51:03.254Z,20.10
2023-10-10T06:53:36.902Z,20.20
2023-10-10T06:56:16.414Z,20.00
2023-10-10T06:58:47.031Z,20.30
2023-10-10T07:01:20.661Z,20.10
2023-10-10T07:03:56.048Z,20.40
2023-10-10T07:06:26.147Z,20.40
2023-10-10T07:09:16.109Z,20.60
2023-10-10T07:11:47.143Z,20.50
2023-10-10T07:14:17.968Z,20.60
2023-10-10T07:16:47.248Z,20.80
2023-10-10T07:19:25.369Z,20.80
2023-10-10T07:21:53.564Z,20.80
2023-10-10T07:24:30.208Z,20.90
2023-10-10T07:27:12.485Z,21.00
2023-10-10T07:30:13.232Z,21.20
2023-10-10T07:32:44.444Z,21.20
2023-10-10T07:35:17.405Z,21.50
2023-10-10T07:37:47.296Z,21.60
2023-10-10T07:40:29.748Z,21.50
2023-10-10T07:43:04.697Z,21.50
2023-10-10T07:45:44.857Z,21.40
2023-10-10T07:48:32.120Z,21.40
2023-10-10T07:51:08.986Z,21.40
2023-10-10T07:53:59.788Z,21.60
2023-10-10T07:56:31.737Z,21.40
2023-10-10T07:59:06.506Z,21.50
2023-10-10T08:01:39.476Z,21.60
2023-10-10T08:04:08.976Z,21.70
2023-10-10T08:06:39.944Z,21.70
2023-10-10T08:09:19.724Z,21.80
2023-10-10T08:11:56.614Z,21.70
2023-10-10T08:14:32.665Z,21.90
2023-10-10T08:17:05.851Z,22.00
2023-10-10T08:19:36.117Z,22.20
2023-10-10T08:22:14.028Z,22.10
2023-10-10T08:24:45.338Z,22.10
2023-10-10T08:27:15.691Z,22.10
2023-10-10T08:29:46.645Z,22.20
2023-10-10T08:32:15.937Z,22.40
2023-10-10T08:34:45.246Z,22.20
2023-10-10T08:37:16.731Z,22.60
2023-10-10T08:39:51.278Z,22.30
2023-10-10T08:42:26.903Z,22.50
2023-10-10T08:44:59.961Z,22.30
2023-10-10T08:47:34.202Z,22.30
2023-10-10T08:50:05.301Z,22.40
2023-10-10T08:52:35.067Z,22.60
2023-10-10T08:55:05.423Z,22.90
2023-10-10T08:57:39.622Z,22.90
2023-10-10T09:00:13.203Z,22.80
2023-10-10T09:02:43.060Z,22.80
2023-10-10T09:05:15.621Z,23.20
2023-10-10T09:07:45.599Z,23.60
2023-10-10T09:10:16.510Z,23.90
2023-10-10T09:12:57.759Z,23.90
2023-10-10T09:15:29.118Z,23.90
2023-10-10T09:18:16.107Z,23.70
2023-10-10T09:20:46.959Z,23.90
2023-10-10T09:23:24.864Z,23.80
2023-10-10T09:26:10.932Z,23.90
2023-10-10T09:28:46.994Z,24.40
2023-10-10T09:31:28.182Z,24.50
2023-10-10T09:33:58.148Z,24.40
2023-10-10T09:36:29.342Z,24.50
2023-10-10T09:39:10.377Z,24.50
2023-10-10T09:42:00.378Z,24.40
2023-10-10T09:44:53.292Z,24.30
2023-10-10T09:47:42.661Z,24.00
2023-10-10T09:50:38.779Z,24.10
2023-10-10T09:53:21.963Z,24.10
2023-10-10T09:55:55.127Z,23.80
2023-10-10T09:58:28.961Z,24.00
2023-10-10T10:01:14.570Z,24.00
2023-10-10T10:03:56.684Z,24.00
2023-10-10T10:07:06.209Z,24.10
2023-10-10T10:09:53.166Z,24.00
2023-10-10T10:13:10.154Z,24.00
2023-10-10T10:15:52.243Z,24.10
2023-10-10T10:18:45.865Z,24.30
2023-10-10T10:21:29.312Z,24.60
2023-10-10T10:24:17.291Z,24.60
2023-10-10T10:26:47.053Z,24.80
2023-10-10T10:29:29.912Z,24.60
2023-10-10T10:32:04.255Z,24.50
2023-10-10T10:34:36.821Z,24.60
2023-10-10T10:37:14.887Z,24.20
2023-10-10T10:40:08.009Z,24.00
2023-10-10T10:42:38.807Z,23.90
2023-10-10T10:45:35.351Z,25.00
2023-10-10T10:48:10.106Z,24.20
2023-10-10T10:50:47.099Z,24.40
2023-10-10T10:53:38.955Z,24.70
2023-10-10T10:56:26.008Z,25.20
2023-10-10T10:59:11.635Z,25.00
2023-10-10T11:01:53.709Z,25.00
2023-10-10T11:04:41.282Z,25.10
2023-10-10T11:07:11.332Z,25.10
2023-10-10T11:09:54.302Z,25.40
2023-10-10T11:12:33.439Z,25.80
2023-10-10T11:15:08.459Z,26.00
2023-10-10T11:17:41.567Z,25.50
2023-10-10T11:20:51.754Z,25.70
2023-10-10T11:23:24.494Z,25.70
2023-10-10T11:26:02.012Z,25.50
2023-10-10T11:28:38.948Z,25.40
2023-10-10T11:31:09.182Z,25.40
2023-10-10T11:33:57.204Z,25.90
2023-10-10T11:36:31.194Z,25.90
2023-10-10T11:41:59.182Z,26.70
2023-10-10T11:44:34.934Z,26.50
2023-10-10T11:47:09.619Z,26.50
2023-10-10T11:49:43.079Z,26.80
2023-10-10T11:52:21.211Z,26.40
2023-10-10T11:54:51.493Z,26.60
2023-10-10T11:57:22.270Z,27.10
2023-10-10T11:59:51.594Z,27.30
2023-10-10T12:02:31.204Z,27.10
2023-10-10T12:05:09.352Z,27.30
2023-10-10T12:07:42.029Z,27.80
2023-10-10T12:10:13.528Z,28.20
2023-10-10T12:12:46.510Z,28.40
2023-10-10T12:15:20.739Z,29.00
2023-10-10T12:17:54.341Z,29.30
2023-10-10T12:20:26.559Z,29.40
2023-10-10T12:22:56.110Z,29.90
2023-10-10T12:25:25.326Z,29.30
2023-10-10T12:28:01.844Z,28.70
2023-10-10T12:30:31.305Z,28.00
2023-10-10T12:33:02.766Z,28.20
2023-10-10T12:35:32.233Z,28.70
2023-10-10T12:38:02.596Z,29.30
2023-10-10T12:40:34.859Z,29.60
2023-10-10T12:43:05.931Z,30.10
2023-10-10T12:45:35.257Z,30.50
2023-10-10T12:48:05.887Z,29.30
2023-10-10T12:50:36.299Z,29.50
2023-10-10T12:53:09.071Z,28.70
2023-10-10T12:55:50.393Z,28.00
2023-10-10T12:58:22.437Z,27.40
2023-10-10T13:00:52.967Z,27.00
2023-10-10T13:03:24.881Z,27.20
2023-10-10T13:06:00.031Z,26.90
2023-10-10T13:08:39.983Z,27.30
2023-10-10T13:11:16.500Z,27.00
2023-10-10T13:13:50.408Z,27.10
2023-10-10T13:16:26.887Z,27.00
2023-10-10T13:18:57.807Z,26.90
2023-10-10T13:21:27.799Z,26.90
2023-10-10T13:23:59.384Z,26.20
2023-10-10T13:26:29.088Z,25.80
2023-10-10T13:29:03.277Z,26.10
2023-10-10T13:31:32.612Z,26.10
2023-10-10T13:34:01.737Z,26.00
2023-10-10T13:36:31.032Z,26.00
2023-10-10T13:39:01.549Z,25.90
2023-10-10T13:41:30.820Z,26.10
2023-10-10T13:44:02.089Z,25.90
2023-10-10T13:46:34.411Z,26.00
2023-10-10T13:49:05.669Z,26.00
2023-10-10T13:51:41.202Z,26.10
2023-10-10T13:54:10.548Z,26.00
2023-10-10T13:56:45.181Z,26.20
2023-10-10T13:59:18.702Z,26.20
2023-10-10T14:01:49.434Z,26.20
2023-10-10T14:04:25.877Z,26.20
2023-10-10T14:06:55.755Z,26.20
2023-10-10T14:09:25.945Z,26.00
2023-10-10T14:12:02.138Z,26.10
2023-10-10T14:14:33.839Z,26.10
2023-10-10T14:17:03.477Z,26.00
2023-10-10T14:19:36.860Z,25.80
2023-10-10T14:22:12.145Z,25.90
2023-10-10T14:24:42.670Z,26.20
2023-10-10T14:27:12.294Z,25.90
2023-10-10T14:29:45.077Z,26.00
2023-10-10T14:32:30.915Z,26.10
2023-10-10T14:35:05.956Z,26.00
2023-10-10T14:37:49.815Z,26.10
2023-10-10T14:40:25.840Z,26.00
2023-10-10T14:42:55.704Z,26.20
2023-10-10T14:45:30.609Z,26.00
2023-10-10T14:48:00.751Z,26.00
2023-10-10T14:50:30.454Z,25.80
2023-10-10T14:53:02.483Z,25.70
2023-10-10T14:55:32.175Z,25.60
2023-10-10T14:58:09.220Z,24.10
2023-10-10T15:00:43.832Z,25.50
2023-10-10T15:03:18.362Z,25.30
2023-10-10T15:05:52.521Z,25.30
2023-10-10T15:08:24.332Z,25.40
2023-10-10T15:10:54.849Z,25.30
2023-10-10T15:13:27.441Z,25.40
2023-10-10T15:15:58.545Z,25.50
2023-10-10T15:18:31.778Z,25.60
2023-10-10T15:21:01.752Z,25.60
2023-10-10T15:23:31.076Z,25.50
2023-10-10T15:26:06.740Z,25.30
2023-10-10T15:28:36.392Z,25.20
2023-10-10T15:31:08.980Z,25.30
2023-10-10T15:33:39.038Z,25.40
2023-10-10T15:36:08.902Z,25.30
2023-10-10T15:38:38.424Z,25.20
2023-10-10T15:41:19.002Z,25.10
2023-10-10T15:43:50.265Z,25.10
2023-10-10T15:46:25.053Z,25.00
2023-10-10T15:48:55.012Z,25.10
2023-10-10T15:51:24.455Z,24.80
2023-10-10T15:53:56.607Z,24.70
2023-10-10T15:56:28.585Z,24.70
2023-10-10T15:58:58.872Z,24.70
2023-10-10T16:01:32.039Z,24.70
2023-10-10T16:04:06.826Z,24.70
2023-10-10T16:06:36.992Z,24.60
2023-10-10T16:09:12.635Z,24.60
2023-10-10T16:11:44.879Z,24.60
2023-10-10T16:14:15.377Z,24.60
2023-10-10T16:16:47.209Z,24.50
2023-10-10T16:19:21.665Z,24.50
2023-10-10T16:21:50.886Z,24.40
2023-10-10T16:24:20.405Z,24.30
2023-10-10T16:26:54.801Z,24.20
2023-10-10T16:29:24.327Z,24.20
2023-10-10T16:31:55.143Z,24.20
2023-10-10T16:34:24.509Z,24.00
2023-10-10T16:36:53.622Z,24.00
2023-10-10T16:39:24.868Z,23.90
2023-10-10T16:41:58.758Z,23.90
2023-10-10T16:44:28.279Z,23.80
2023-10-10T16:47:02.511Z,23.70
2023-10-10T16:49:32.089Z,23.60
2023-10-10T16:52:01.308Z,23.70
2023-10-10T16:54:35.135Z,23.60
2023-10-10T16:57:05.045Z,23.50
2023-10-10T16:59:34.272Z,23.50
2023-10-10T17:02:05.050Z,23.60
2023-10-10T17:04:34.927Z,23.50
2023-10-10T17:07:05.215Z,23.30
2023-10-10T17:09:37.092Z,23.20
2023-10-10T17:12:06.844Z,23.20
2023-10-10T17:14:38.867Z,23.10
2023-10-10T17:17:10.111Z,23.10
2023-10-10T17:19:39.314Z,23.10
2023-10-10T17:22:08.531Z,23.10
2023-10-10T17:24:37.792Z,23.10
2023-10-10T17:27:11.647Z,23.10
2023-10-10T17:29:41.088Z,23.00
2023-10-10T17:32:11.856Z,22.80
2023-10-10T17:34:42.204Z,22.90
2023-10-10T17:37:14.213Z,22.80
2023-10-10T17:39:45.142Z,22.80
2023-10-10T17:42:15.670Z,22.70
2023-10-10T17:44:46.442Z,22.60
2023-10-10T17:47:18.385Z,22.60
2023-10-10T17:49:49.196Z,22.50
2023-10-10T17:52:19.430Z,22.60
2023-10-10T17:54:50.889Z,22.60
2023-10-10T17:57:23.559Z,22.60
2023-10-10T17:59:54.304Z,22.80
2023-10-10T18:02:27.031Z,22.80
2023-10-10T18:04:57.703Z,22.80
2023-10-10T18:07:28.025Z,22.90
2023-10-10T18:09:58.164Z,22.80
2023-10-10T18:12:29.169Z,22.60
2023-10-10T18:15:02.430Z,22.40
2023-10-10T18:17:35.821Z,22.50
2023-10-10T18:20:16.299Z,22.50
2023-10-10T18:22:47.581Z,22.60
2023-10-10T18:25:18.114Z,22.60
2023-10-10T18:27:48.988Z,22.50
2023-10-10T18:30:20.904Z,22.40
2023-10-10T18:32:53.262Z,22.20
2023-10-10T18:35:28.520Z,22.40
2023-10-10T18:37:59.051Z,22.40
2023-10-10T18:40:29.896Z,22.10
2023-10-10T18:43:00.411Z,22.20
2023-10-10T18:45:33.599Z,22.20
2023-10-10T18:48:06.052Z,22.20
2023-10-10T18:50:38.490Z,22.20
2023-10-10T18:53:08.831Z,22.10
2023-10-10T18:55:39.208Z,22.10
2023-10-10T18:58:09.277Z,22.00
2023-10-10T19:00:41.042Z,22.00
2023-10-10T19:03:16.507Z,22.00
2023-10-10T19:05:48.508Z,21.80
2023-10-10T19:08:18.847Z,21.60
2023-10-10T19:10:52.357Z,21.70
2023-10-10T19:13:23.056Z,21.80
2023-10-10T19:15:54.358Z,21.90
2023-10-10T19:18:26.589Z,21.80
2023-10-10T19:20:56.986Z,21.70
2023-10-10T19:23:30.820Z,21.60
2023-10-10T19:26:02.537Z,21.70
2023-10-10T19:28:32.659Z,21.70
2023-10-10T19:31:02.814Z,21.70
2023-10-10T19:33:35.125Z,21.70
2023-10-10T19:36:09.655Z,21.40
2023-10-10T19:38:41.816Z,21.40
2023-10-10T19:41:12.364Z,21.30
2023-10-10T19:43:42.390Z,21.30
2023-10-10T19:46:13.419Z,21.40
2023-10-10T19:48:45.346Z,21.50
2023-10-10T19:51:20.049Z,21.30
2023-10-10T19:53:52.026Z,20.80
2023-10-10T19:56:22.915Z,20.90
2023-10-10T19:58:55.031Z,20.90
2023-10-10T20:01:27.047Z,20.90
2023-10-10T20:03:58.798Z,20.70
2023-10-10T20:06:31.785Z,20.90
2023-10-10T20:09:01.818Z,21.00
2023-10-10T20:11:32.347Z,20.80
2023-10-10T20:14:02.566Z,20.70
2023-10-10T20:16:32.765Z,20.70
2023-10-10T20:19:06.266Z,20.60
2023-10-10T20:21:39.162Z,20.50
2023-10-10T20:24:10.551Z,20.50
2023-10-10T20:26:40.772Z,20.70
2023-10-10T20:29:11.474Z,20.70
2023-10-10T20:31:44.554Z,20.70
2023-10-10T20:34:16.515Z,20.60
2023-10-10T20:36:48.180Z,20.70
2023-10-10T20:39:20.038Z,20.70
2023-10-10T20:41:51.616Z,20.80
2023-10-10T20:44:21.939Z,21.00
2023-10-10T20:46:52.658Z,20.90
2023-10-10T20:49:24.806Z,20.80
2023-10-10T20:51:56.388Z,21.00
2023-10-10T20:54:27.929Z,20.90
2023-10-10T20:56:58.257Z,20.90
2023-10-10T20:59:31.245Z,20.90
2023-10-10T21:02:01.426Z,20.70
2023-10-10T21:04:35.303Z,20.70
2023-10-10T21:07:05.271Z,20.60
2023-10-10T21:09:37.634Z,20.60
2023-10-10T21:12:08.938Z,20.50
2023-10-10T21:14:39.125Z,20.70
2023-10-10T21:17:09.022Z,20.40
2023-10-10T21:19:41.799Z,20.50
2023-10-10T21:22:12.538Z,20.60
2023-10-10T21:24:46.559Z,20.50
2023-10-10T21:27:20.252Z,20.30
2023-10-10T21:29:51.622Z,20.30
2023-10-10T21:32:22.775Z,20.50
2023-10-10T21:37:42.846Z,20.40
2023-10-10T21:40:16.042Z,20.50
2023-10-10T21:42:46.673Z,20.30
2023-10-10T21:45:17.146Z,20.30
2023-10-10T21:47:49.098Z,20.60
2023-10-10T21:50:21.737Z,20.40
2023-10-10T21:52:52.346Z,20.30
2023-10-10T21:55:24.843Z,20.20
2023-10-10T21:57:56.917Z,20.20
2023-10-10T22:00:42.109Z,20.00
2023-10-10T22:03:12.317Z,20.20
2023-10-10T22:05:46.953Z,20.10
2023-10-10T22:08:17.046Z,20.30
2023-10-10T22:10:48.597Z,20.20
2023-10-10T22:13:19.126Z,20.00
2023-10-10T22:15:49.293Z,20.10
2023-10-10T22:18:21.771Z,20.20
2023-10-10T22:20:53.713Z,20.10
2023-10-10T22:23:24.111Z,19.90
2023-10-10T22:26:00.885Z,19.90
2023-10-10T22:28:33.357Z,20.10
2023-10-10T22:31:05.230Z,19.90
2023-10-10T22:33:36.246Z,19.80
2023-10-10T22:36:16.414Z,20.00
2023-10-10T22:38:47.199Z,20.00
2023-10-10T22:41:20.343Z,20.00
2023-10-10T22:43:50.578Z,19.80
2023-10-10T22:46:21.509Z,19.80
2023-10-10T22:48:51.935Z,20.00
2023-10-10T22:51:26.139Z,20.10
2023-10-10T22:53:56.384Z,19.90
2023-10-10T22:56:26.592Z,19.90
2023-10-10T22:58:56.722Z,19.70
2023-10-10T23:01:27.184Z,19.60
2023-10-10T23:03:57.511Z,19.60
2023-10-10T23:06:30.256Z,19.60
2023-10-10T23:09:00.478Z,19.50
2023-10-10T23:11:30.882Z,19.50
2023-10-10T23:14:01.105Z,19.40
2023-10-10T23:16:31.805Z,19.60
2023-10-10T23:19:01.875Z,19.50
2023-10-10T23:21:34.123Z,19.40
2023-10-10T23:24:07.539Z,19.80
2023-10-10T23:26:38.112Z,19.70
2023-10-10T23:29:08.374Z,19.80
2023-10-10T23:31:39.126Z,19.90
2023-10-10T23:34:09.836Z,19.80
2023-10-10T23:36:41.497Z,19.70
2023-10-10T23:39:18.469Z,20.00
2023-10-10T23:41:49.307Z,19.90
2023-10-10T23:44:19.637Z,19.60
2023-10-10T23:46:50.018Z,19.50
2023-10-10T23:49:20.078Z,19.60
2023-10-10T23:51:51.836Z,19.60
2023-10-10T23:54:23.698Z,19.40
2023-10-10T23:56:53.830Z,19.60
2023-10-10T23:59:24.026Z,19.50
